sensor_id;sensor_type;location;lat;lon;timestamp;P1;durP1;ratioP1;P2;durP2;ratioP2
12665;SDS011;58531;59.050;17.416;2024-02-14T00:02:22;10.03;;;6.37;;
12665;SDS011;58531;59.050;17.416;2024-02-14T00:04:51;10.47;;;5.80;;
12665;SDS011;58531;59.050;17.416;2024-02-14T00:07:18;8.27;;;5.50;;
12665;SDS011;58531;59.050;17.416;2024-02-14T00:09:45;10.33;;;5.90;;
12665;SDS011;58531;59.050;17.416;2024-02-14T00:12:12;11.13;;;6.27;;
12665;SDS011;58531;59.050;17.416;2024-02-14T00:14:40;12.00;;;6.47;;
12665;SDS011;58531;59.050;17.416;2024-02-14T00:17:07;11.37;;;7.53;;
12665;SDS011;58531;59.050;17.416;2024-02-14T00:19:35;12.70;;;7.53;;
12665;SDS011;58531;59.050;17.416;2024-02-14T00:22:02;11.83;;;7.40;;
12665;SDS011;58531;59.050;17.416;2024-02-14T00:24:29;11.33;;;6.77;;
12665;SDS011;58531;59.050;17.416;2024-02-14T00:26:57;9.33;;;6.10;;
12665;SDS011;58531;59.050;17.416;2024-02-14T00:29:25;10.13;;;5.97;;
12665;SDS011;58531;59.050;17.416;2024-02-14T00:31:54;17.27;;;9.37;;
12665;SDS011;58531;59.050;17.416;2024-02-14T00:34:20;13.90;;;6.93;;
12665;SDS011;58531;59.050;17.416;2024-02-14T00:36:47;21.13;;;9.80;;
12665;SDS011;58531;59.050;17.416;2024-02-14T00:39:14;16.23;;;8.37;;
12665;SDS011;58531;59.050;17.416;2024-02-14T00:41:41;13.10;;;7.90;;
12665;SDS011;58531;59.050;17.416;2024-02-14T00:44:08;17.40;;;8.83;;
12665;SDS011;58531;59.050;17.416;2024-02-14T00:46:35;14.40;;;7.40;;
12665;SDS011;58531;59.050;17.416;2024-02-14T00:49:03;13.07;;;7.10;;
12665;SDS011;58531;59.050;17.416;2024-02-14T00:51:30;17.60;;;7.67;;
12665;SDS011;58531;59.050;17.416;2024-02-14T00:53:57;14.53;;;6.77;;
12665;SDS011;58531;59.050;17.416;2024-02-14T00:56:24;14.07;;;6.67;;
12665;SDS011;58531;59.050;17.416;2024-02-14T00:58:50;10.97;;;6.10;;
12665;SDS011;58531;59.050;17.416;2024-02-14T01:01:17;15.93;;;7.33;;
12665;SDS011;58531;59.050;17.416;2024-02-14T01:03:44;14.53;;;8.10;;
12665;SDS011;58531;59.050;17.416;2024-02-14T01:06:12;13.37;;;7.67;;
12665;SDS011;58531;59.050;17.416;2024-02-14T01:08:40;15.67;;;7.73;;
12665;SDS011;58531;59.050;17.416;2024-02-14T01:11:07;14.53;;;7.57;;
12665;SDS011;58531;59.050;17.416;2024-02-14T01:13:34;13.10;;;7.93;;
12665;SDS011;58531;59.050;17.416;2024-02-14T01:16:02;15.87;;;7.77;;
12665;SDS011;58531;59.050;17.416;2024-02-14T01:18:29;31.47;;;13.13;;
12665;SDS011;58531;59.050;17.416;2024-02-14T01:20:56;42.30;;;19.87;;
12665;SDS011;58531;59.050;17.416;2024-02-14T01:23:27;29.83;;;13.73;;
12665;SDS011;58531;59.050;17.416;2024-02-14T01:25:54;19.40;;;9.43;;
12665;SDS011;58531;59.050;17.416;2024-02-14T01:28:20;19.70;;;8.00;;
12665;SDS011;58531;59.050;17.416;2024-02-14T01:30:47;13.87;;;7.47;;
12665;SDS011;58531;59.050;17.416;2024-02-14T01:33:16;14.23;;;6.87;;
12665;SDS011;58531;59.050;17.416;2024-02-14T01:35:43;12.40;;;7.07;;
12665;SDS011;58531;59.050;17.416;2024-02-14T01:38:10;12.90;;;7.37;;
12665;SDS011;58531;59.050;17.416;2024-02-14T01:40:46;19.07;;;8.93;;
12665;SDS011;58531;59.050;17.416;2024-02-14T01:43:13;13.90;;;8.33;;
12665;SDS011;58531;59.050;17.416;2024-02-14T01:45:40;15.60;;;7.50;;
12665;SDS011;58531;59.050;17.416;2024-02-14T01:48:08;11.70;;;7.00;;
12665;SDS011;58531;59.050;17.416;2024-02-14T01:50:35;14.17;;;7.00;;
12665;SDS011;58531;59.050;17.416;2024-02-14T01:53:04;11.23;;;7.23;;
12665;SDS011;58531;59.050;17.416;2024-02-14T01:55:31;11.47;;;7.10;;
12665;SDS011;58531;59.050;17.416;2024-02-14T01:58:01;13.83;;;6.80;;
12665;SDS011;58531;59.050;17.416;2024-02-14T02:00:29;11.77;;;6.90;;
12665;SDS011;58531;59.050;17.416;2024-02-14T02:02:57;11.03;;;7.17;;
12665;SDS011;58531;59.050;17.416;2024-02-14T02:05:27;11.20;;;6.70;;
12665;SDS011;58531;59.050;17.416;2024-02-14T02:07:54;11.27;;;6.13;;
12665;SDS011;58531;59.050;17.416;2024-02-14T02:10:20;11.43;;;6.43;;
12665;SDS011;58531;59.050;17.416;2024-02-14T02:12:50;10.73;;;6.30;;
12665;SDS011;58531;59.050;17.416;2024-02-14T02:15:18;11.10;;;6.43;;
12665;SDS011;58531;59.050;17.416;2024-02-14T02:17:45;10.63;;;6.10;;
12665;SDS011;58531;59.050;17.416;2024-02-14T02:20:17;9.93;;;6.57;;
12665;SDS011;58531;59.050;17.416;2024-02-14T02:22:46;11.10;;;6.90;;
12665;SDS011;58531;59.050;17.416;2024-02-14T02:25:14;11.70;;;5.97;;
12665;SDS011;58531;59.050;17.416;2024-02-14T02:27:41;15.03;;;7.20;;
12665;SDS011;58531;59.050;17.416;2024-02-14T02:30:10;10.37;;;6.30;;
12665;SDS011;58531;59.050;17.416;2024-02-14T02:32:38;11.33;;;6.47;;
12665;SDS011;58531;59.050;17.416;2024-02-14T02:35:06;8.93;;;5.93;;
12665;SDS011;58531;59.050;17.416;2024-02-14T02:37:34;9.57;;;6.23;;
12665;SDS011;58531;59.050;17.416;2024-02-14T02:40:03;11.17;;;6.57;;
12665;SDS011;58531;59.050;17.416;2024-02-14T02:42:30;11.87;;;6.60;;
12665;SDS011;58531;59.050;17.416;2024-02-14T02:44:57;10.93;;;6.53;;
12665;SDS011;58531;59.050;17.416;2024-02-14T02:47:24;10.33;;;6.63;;
12665;SDS011;58531;59.050;17.416;2024-02-14T02:49:51;10.47;;;6.63;;
12665;SDS011;58531;59.050;17.416;2024-02-14T02:52:18;15.03;;;7.30;;
12665;SDS011;58531;59.050;17.416;2024-02-14T02:54:45;14.43;;;7.37;;
12665;SDS011;58531;59.050;17.416;2024-02-14T02:57:13;13.63;;;7.50;;
12665;SDS011;58531;59.050;17.416;2024-02-14T02:59:40;13.87;;;7.30;;
12665;SDS011;58531;59.050;17.416;2024-02-14T03:02:09;13.70;;;7.20;;
12665;SDS011;58531;59.050;17.416;2024-02-14T03:04:37;15.77;;;7.50;;
12665;SDS011;58531;59.050;17.416;2024-02-14T03:07:04;13.27;;;7.80;;
12665;SDS011;58531;59.050;17.416;2024-02-14T03:09:33;11.10;;;6.97;;
12665;SDS011;58531;59.050;17.416;2024-02-14T03:12:01;14.87;;;7.23;;
12665;SDS011;58531;59.050;17.416;2024-02-14T03:14:30;14.23;;;7.27;;
12665;SDS011;58531;59.050;17.416;2024-02-14T03:17:01;13.43;;;7.97;;
12665;SDS011;58531;59.050;17.416;2024-02-14T03:19:28;14.73;;;7.37;;
12665;SDS011;58531;59.050;17.416;2024-02-14T03:21:56;13.03;;;8.17;;
12665;SDS011;58531;59.050;17.416;2024-02-14T03:24:24;13.97;;;7.77;;
12665;SDS011;58531;59.050;17.416;2024-02-14T03:26:51;15.60;;;8.40;;
12665;SDS011;58531;59.050;17.416;2024-02-14T03:29:18;17.63;;;8.90;;
12665;SDS011;58531;59.050;17.416;2024-02-14T03:31:47;15.53;;;8.80;;
12665;SDS011;58531;59.050;17.416;2024-02-14T03:34:17;15.33;;;8.57;;
12665;SDS011;58531;59.050;17.416;2024-02-14T03:36:44;15.33;;;8.77;;
12665;SDS011;58531;59.050;17.416;2024-02-14T03:39:13;15.77;;;8.97;;
12665;SDS011;58531;59.050;17.416;2024-02-14T03:41:42;14.70;;;8.30;;
12665;SDS011;58531;59.050;17.416;2024-02-14T03:44:09;17.90;;;8.80;;
12665;SDS011;58531;59.050;17.416;2024-02-14T03:46:35;16.73;;;9.20;;
12665;SDS011;58531;59.050;17.416;2024-02-14T03:49:04;15.50;;;8.77;;
12665;SDS011;58531;59.050;17.416;2024-02-14T03:51:30;17.30;;;9.30;;
12665;SDS011;58531;59.050;17.416;2024-02-14T03:53:58;17.53;;;9.17;;
12665;SDS011;58531;59.050;17.416;2024-02-14T03:56:25;20.33;;;9.73;;
12665;SDS011;58531;59.050;17.416;2024-02-14T03:58:52;16.57;;;8.53;;
12665;SDS011;58531;59.050;17.416;2024-02-14T04:01:19;14.87;;;7.90;;
12665;SDS011;58531;59.050;17.416;2024-02-14T04:03:47;17.13;;;9.13;;
12665;SDS011;58531;59.050;17.416;2024-02-14T04:06:16;15.13;;;8.67;;
12665;SDS011;58531;59.050;17.416;2024-02-14T04:08:43;16.73;;;9.43;;
12665;SDS011;58531;59.050;17.416;2024-02-14T04:11:10;14.20;;;7.70;;
12665;SDS011;58531;59.050;17.416;2024-02-14T04:13:38;17.53;;;8.43;;
12665;SDS011;58531;59.050;17.416;2024-02-14T04:16:05;15.10;;;8.30;;
12665;SDS011;58531;59.050;17.416;2024-02-14T04:18:32;15.73;;;8.37;;
12665;SDS011;58531;59.050;17.416;2024-02-14T04:20:59;15.60;;;8.17;;
12665;SDS011;58531;59.050;17.416;2024-02-14T04:23:27;14.43;;;8.60;;
12665;SDS011;58531;59.050;17.416;2024-02-14T04:25:54;16.10;;;8.93;;
12665;SDS011;58531;59.050;17.416;2024-02-14T04:28:23;13.70;;;8.77;;
12665;SDS011;58531;59.050;17.416;2024-02-14T04:30:50;14.70;;;9.17;;
12665;SDS011;58531;59.050;17.416;2024-02-14T04:33:18;13.53;;;7.87;;
12665;SDS011;58531;59.050;17.416;2024-02-14T04:35:46;15.93;;;8.43;;
12665;SDS011;58531;59.050;17.416;2024-02-14T04:38:15;15.43;;;9.17;;
12665;SDS011;58531;59.050;17.416;2024-02-14T04:40:46;13.67;;;8.50;;
12665;SDS011;58531;59.050;17.416;2024-02-14T04:43:13;15.10;;;9.20;;
12665;SDS011;58531;59.050;17.416;2024-02-14T04:45:41;15.93;;;9.30;;
12665;SDS011;58531;59.050;17.416;2024-02-14T04:48:08;15.40;;;9.20;;
12665;SDS011;58531;59.050;17.416;2024-02-14T04:50:36;16.57;;;9.23;;
12665;SDS011;58531;59.050;17.416;2024-02-14T04:53:03;14.17;;;8.67;;
12665;SDS011;58531;59.050;17.416;2024-02-14T04:55:30;17.87;;;8.83;;
12665;SDS011;58531;59.050;17.416;2024-02-14T04:57:59;14.10;;;7.90;;
12665;SDS011;58531;59.050;17.416;2024-02-14T05:00:26;14.40;;;7.47;;
12665;SDS011;58531;59.050;17.416;2024-02-14T05:02:53;12.43;;;8.17;;
12665;SDS011;58531;59.050;17.416;2024-02-14T05:05:20;15.43;;;8.27;;
12665;SDS011;58531;59.050;17.416;2024-02-14T05:07:47;20.57;;;8.97;;
12665;SDS011;58531;59.050;17.416;2024-02-14T05:10:14;15.10;;;8.67;;
12665;SDS011;58531;59.050;17.416;2024-02-14T05:12:41;13.10;;;8.20;;
12665;SDS011;58531;59.050;17.416;2024-02-14T05:15:09;13.83;;;8.40;;
12665;SDS011;58531;59.050;17.416;2024-02-14T05:17:37;15.17;;;8.67;;
12665;SDS011;58531;59.050;17.416;2024-02-14T05:20:05;12.77;;;7.57;;
12665;SDS011;58531;59.050;17.416;2024-02-14T05:22:35;16.37;;;8.00;;
12665;SDS011;58531;59.050;17.416;2024-02-14T05:25:03;15.30;;;8.60;;
12665;SDS011;58531;59.050;17.416;2024-02-14T05:27:30;13.13;;;8.70;;
12665;SDS011;58531;59.050;17.416;2024-02-14T05:29:57;12.90;;;8.40;;
12665;SDS011;58531;59.050;17.416;2024-02-14T05:32:25;15.43;;;8.60;;
12665;SDS011;58531;59.050;17.416;2024-02-14T05:34:52;14.57;;;8.80;;
12665;SDS011;58531;59.050;17.416;2024-02-14T05:37:19;13.50;;;8.10;;
12665;SDS011;58531;59.050;17.416;2024-02-14T05:39:46;12.80;;;8.13;;
12665;SDS011;58531;59.050;17.416;2024-02-14T05:42:13;13.20;;;8.00;;
12665;SDS011;58531;59.050;17.416;2024-02-14T05:44:41;15.53;;;8.83;;
12665;SDS011;58531;59.050;17.416;2024-02-14T05:47:08;27.63;;;15.20;;
12665;SDS011;58531;59.050;17.416;2024-02-14T05:49:37;41.43;;;20.93;;
12665;SDS011;58531;59.050;17.416;2024-02-14T05:52:05;28.00;;;13.97;;
12665;SDS011;58531;59.050;17.416;2024-02-14T05:54:32;26.87;;;13.77;;
12665;SDS011;58531;59.050;17.416;2024-02-14T05:56:59;27.53;;;13.73;;
12665;SDS011;58531;59.050;17.416;2024-02-14T05:59:26;20.23;;;12.87;;
12665;SDS011;58531;59.050;17.416;2024-02-14T06:01:53;16.10;;;9.93;;
12665;SDS011;58531;59.050;17.416;2024-02-14T06:04:20;21.50;;;11.67;;
12665;SDS011;58531;59.050;17.416;2024-02-14T06:06:48;28.90;;;14.57;;
12665;SDS011;58531;59.050;17.416;2024-02-14T06:09:15;32.77;;;16.27;;
12665;SDS011;58531;59.050;17.416;2024-02-14T06:11:42;30.67;;;14.40;;
12665;SDS011;58531;59.050;17.416;2024-02-14T06:14:11;30.67;;;14.73;;
12665;SDS011;58531;59.050;17.416;2024-02-14T06:16:39;31.87;;;17.80;;
12665;SDS011;58531;59.050;17.416;2024-02-14T06:19:05;54.10;;;26.13;;
12665;SDS011;58531;59.050;17.416;2024-02-14T06:21:32;81.63;;;36.00;;
12665;SDS011;58531;59.050;17.416;2024-02-14T06:24:01;81.63;;;35.47;;
12665;SDS011;58531;59.050;17.416;2024-02-14T06:26:29;57.47;;;28.07;;
12665;SDS011;58531;59.050;17.416;2024-02-14T06:28:58;44.50;;;23.90;;
12665;SDS011;58531;59.050;17.416;2024-02-14T06:31:25;46.90;;;23.83;;
12665;SDS011;58531;59.050;17.416;2024-02-14T06:33:52;35.03;;;18.20;;
12665;SDS011;58531;59.050;17.416;2024-02-14T06:36:19;33.67;;;17.57;;
12665;SDS011;58531;59.050;17.416;2024-02-14T06:38:45;31.07;;;16.37;;
12665;SDS011;58531;59.050;17.416;2024-02-14T06:41:14;26.00;;;16.20;;
12665;SDS011;58531;59.050;17.416;2024-02-14T06:43:41;26.57;;;13.83;;
12665;SDS011;58531;59.050;17.416;2024-02-14T06:46:10;25.27;;;14.60;;
12665;SDS011;58531;59.050;17.416;2024-02-14T06:48:37;23.83;;;12.27;;
12665;SDS011;58531;59.050;17.416;2024-02-14T06:51:05;22.23;;;12.60;;
12665;SDS011;58531;59.050;17.416;2024-02-14T06:53:33;22.30;;;11.47;;
12665;SDS011;58531;59.050;17.416;2024-02-14T06:56:00;24.37;;;13.10;;
12665;SDS011;58531;59.050;17.416;2024-02-14T06:58:29;23.53;;;13.00;;
12665;SDS011;58531;59.050;17.416;2024-02-14T07:00:56;20.20;;;11.90;;
12665;SDS011;58531;59.050;17.416;2024-02-14T07:03:22;20.73;;;11.37;;
12665;SDS011;58531;59.050;17.416;2024-02-14T07:05:49;21.53;;;11.97;;
12665;SDS011;58531;59.050;17.416;2024-02-14T07:08:18;24.70;;;12.57;;
12665;SDS011;58531;59.050;17.416;2024-02-14T07:10:45;19.73;;;12.07;;
12665;SDS011;58531;59.050;17.416;2024-02-14T07:13:12;22.03;;;12.20;;
12665;SDS011;58531;59.050;17.416;2024-02-14T07:15:40;20.70;;;11.80;;
12665;SDS011;58531;59.050;17.416;2024-02-14T07:18:08;19.70;;;11.60;;
12665;SDS011;58531;59.050;17.416;2024-02-14T07:20:35;19.37;;;11.23;;
12665;SDS011;58531;59.050;17.416;2024-02-14T07:23:02;22.90;;;11.60;;
12665;SDS011;58531;59.050;17.416;2024-02-14T07:25:30;24.00;;;11.40;;
12665;SDS011;58531;59.050;17.416;2024-02-14T07:27:57;26.83;;;12.57;;
12665;SDS011;58531;59.050;17.416;2024-02-14T07:30:24;22.40;;;12.27;;
12665;SDS011;58531;59.050;17.416;2024-02-14T07:32:52;18.77;;;10.63;;
12665;SDS011;58531;59.050;17.416;2024-02-14T07:35:19;20.90;;;11.23;;
12665;SDS011;58531;59.050;17.416;2024-02-14T07:37:46;21.07;;;11.57;;
12665;SDS011;58531;59.050;17.416;2024-02-14T07:40:13;18.17;;;10.07;;
12665;SDS011;58531;59.050;17.416;2024-02-14T07:42:40;21.77;;;10.20;;
12665;SDS011;58531;59.050;17.416;2024-02-14T07:45:07;16.13;;;9.10;;
12665;SDS011;58531;59.050;17.416;2024-02-14T07:47:35;17.77;;;9.63;;
12665;SDS011;58531;59.050;17.416;2024-02-14T07:50:03;16.47;;;8.07;;
12665;SDS011;58531;59.050;17.416;2024-02-14T07:52:31;11.27;;;7.37;;
12665;SDS011;58531;59.050;17.416;2024-02-14T07:54:58;10.97;;;6.70;;
12665;SDS011;58531;59.050;17.416;2024-02-14T07:57:25;14.43;;;8.10;;
12665;SDS011;58531;59.050;17.416;2024-02-14T07:59:52;12.43;;;7.10;;
12665;SDS011;58531;59.050;17.416;2024-02-14T08:02:20;12.33;;;6.93;;
12665;SDS011;58531;59.050;17.416;2024-02-14T08:04:46;11.10;;;7.00;;
12665;SDS011;58531;59.050;17.416;2024-02-14T08:07:15;11.37;;;7.33;;
12665;SDS011;58531;59.050;17.416;2024-02-14T08:09:42;11.23;;;7.23;;
12665;SDS011;58531;59.050;17.416;2024-02-14T08:12:08;13.23;;;7.10;;
12665;SDS011;58531;59.050;17.416;2024-02-14T08:14:35;12.80;;;8.00;;
12665;SDS011;58531;59.050;17.416;2024-02-14T08:17:03;14.07;;;7.83;;
12665;SDS011;58531;59.050;17.416;2024-02-14T08:19:29;11.97;;;6.83;;
12665;SDS011;58531;59.050;17.416;2024-02-14T08:21:56;10.97;;;6.73;;
12665;SDS011;58531;59.050;17.416;2024-02-14T08:24:27;10.07;;;7.07;;
12665;SDS011;58531;59.050;17.416;2024-02-14T08:26:54;10.40;;;6.63;;
12665;SDS011;58531;59.050;17.416;2024-02-14T08:29:21;13.83;;;7.10;;
12665;SDS011;58531;59.050;17.416;2024-02-14T08:31:49;13.30;;;6.90;;
12665;SDS011;58531;59.050;17.416;2024-02-14T08:34:16;12.33;;;6.80;;
12665;SDS011;58531;59.050;17.416;2024-02-14T08:36:43;9.80;;;6.10;;
12665;SDS011;58531;59.050;17.416;2024-02-14T08:39:10;10.07;;;5.53;;
12665;SDS011;58531;59.050;17.416;2024-02-14T08:41:39;12.47;;;6.70;;
12665;SDS011;58531;59.050;17.416;2024-02-14T08:44:08;9.50;;;6.33;;
12665;SDS011;58531;59.050;17.416;2024-02-14T08:46:35;13.13;;;7.83;;
12665;SDS011;58531;59.050;17.416;2024-02-14T08:49:02;14.50;;;7.60;;
12665;SDS011;58531;59.050;17.416;2024-02-14T08:51:33;11.63;;;6.97;;
12665;SDS011;58531;59.050;17.416;2024-02-14T08:54:00;12.33;;;7.60;;
12665;SDS011;58531;59.050;17.416;2024-02-14T08:56:30;9.37;;;6.40;;
12665;SDS011;58531;59.050;17.416;2024-02-14T08:58:59;11.13;;;5.93;;
12665;SDS011;58531;59.050;17.416;2024-02-14T09:01:27;8.00;;;5.90;;
12665;SDS011;58531;59.050;17.416;2024-02-14T09:03:54;11.63;;;5.70;;
12665;SDS011;58531;59.050;17.416;2024-02-14T09:06:21;9.43;;;6.27;;
12665;SDS011;58531;59.050;17.416;2024-02-14T09:08:48;8.20;;;6.57;;
12665;SDS011;58531;59.050;17.416;2024-02-14T09:11:15;11.50;;;6.07;;
12665;SDS011;58531;59.050;17.416;2024-02-14T09:13:42;10.00;;;5.00;;
12665;SDS011;58531;59.050;17.416;2024-02-14T09:16:12;9.70;;;5.50;;
12665;SDS011;58531;59.050;17.416;2024-02-14T09:18:40;9.27;;;5.63;;
12665;SDS011;58531;59.050;17.416;2024-02-14T09:21:07;12.03;;;5.90;;
12665;SDS011;58531;59.050;17.416;2024-02-14T09:23:34;9.53;;;4.90;;
12665;SDS011;58531;59.050;17.416;2024-02-14T09:26:04;7.40;;;4.80;;
12665;SDS011;58531;59.050;17.416;2024-02-14T09:28:31;11.47;;;5.60;;
12665;SDS011;58531;59.050;17.416;2024-02-14T09:31:00;7.97;;;5.27;;
12665;SDS011;58531;59.050;17.416;2024-02-14T09:33:30;9.30;;;4.93;;
12665;SDS011;58531;59.050;17.416;2024-02-14T09:35:57;11.33;;;4.30;;
12665;SDS011;58531;59.050;17.416;2024-02-14T09:38:24;6.53;;;3.93;;
12665;SDS011;58531;59.050;17.416;2024-02-14T09:40:52;8.47;;;3.87;;
12665;SDS011;58531;59.050;17.416;2024-02-14T09:43:22;8.27;;;3.77;;
12665;SDS011;58531;59.050;17.416;2024-02-14T09:45:58;8.53;;;3.87;;
12665;SDS011;58531;59.050;17.416;2024-02-14T09:48:28;6.30;;;3.57;;
12665;SDS011;58531;59.050;17.416;2024-02-14T09:50:58;8.00;;;3.53;;
12665;SDS011;58531;59.050;17.416;2024-02-14T09:53:26;6.60;;;3.30;;
12665;SDS011;58531;59.050;17.416;2024-02-14T09:55:55;5.77;;;3.47;;
12665;SDS011;58531;59.050;17.416;2024-02-14T09:58:23;6.70;;;3.10;;
12665;SDS011;58531;59.050;17.416;2024-02-14T10:00:51;6.40;;;2.93;;
12665;SDS011;58531;59.050;17.416;2024-02-14T10:03:17;8.33;;;3.70;;
12665;SDS011;58531;59.050;17.416;2024-02-14T10:05:46;5.33;;;3.03;;
12665;SDS011;58531;59.050;17.416;2024-02-14T10:08:13;6.40;;;3.43;;
12665;SDS011;58531;59.050;17.416;2024-02-14T10:10:40;5.40;;;2.80;;
12665;SDS011;58531;59.050;17.416;2024-02-14T10:13:07;7.00;;;3.13;;
12665;SDS011;58531;59.050;17.416;2024-02-14T10:15:34;7.27;;;3.13;;
12665;SDS011;58531;59.050;17.416;2024-02-14T10:18:03;6.13;;;3.10;;
12665;SDS011;58531;59.050;17.416;2024-02-14T10:20:32;6.67;;;3.20;;
12665;SDS011;58531;59.050;17.416;2024-02-14T10:23:01;6.70;;;3.03;;
12665;SDS011;58531;59.050;17.416;2024-02-14T10:25:29;5.50;;;2.60;;
12665;SDS011;58531;59.050;17.416;2024-02-14T10:27:57;8.70;;;2.93;;
12665;SDS011;58531;59.050;17.416;2024-02-14T10:30:29;5.43;;;3.20;;
12665;SDS011;58531;59.050;17.416;2024-02-14T10:32:57;7.27;;;2.97;;
12665;SDS011;58531;59.050;17.416;2024-02-14T10:35:24;6.33;;;2.87;;
12665;SDS011;58531;59.050;17.416;2024-02-14T10:37:52;4.23;;;2.50;;
12665;SDS011;58531;59.050;17.416;2024-02-14T10:40:27;5.37;;;2.67;;
12665;SDS011;58531;59.050;17.416;2024-02-14T10:42:54;5.13;;;2.50;;
12665;SDS011;58531;59.050;17.416;2024-02-14T10:45:23;5.30;;;2.37;;
12665;SDS011;58531;59.050;17.416;2024-02-14T10:47:50;7.90;;;2.43;;
12665;SDS011;58531;59.050;17.416;2024-02-14T10:50:20;6.30;;;2.30;;
12665;SDS011;58531;59.050;17.416;2024-02-14T10:52:48;4.73;;;2.43;;
12665;SDS011;58531;59.050;17.416;2024-02-14T10:55:16;8.33;;;2.53;;
12665;SDS011;58531;59.050;17.416;2024-02-14T10:57:45;6.63;;;2.57;;
12665;SDS011;58531;59.050;17.416;2024-02-14T11:00:14;6.03;;;2.43;;
12665;SDS011;58531;59.050;17.416;2024-02-14T11:02:43;9.63;;;2.90;;
12665;SDS011;58531;59.050;17.416;2024-02-14T11:05:14;6.63;;;2.50;;
12665;SDS011;58531;59.050;17.416;2024-02-14T11:07:45;4.60;;;2.47;;
12665;SDS011;58531;59.050;17.416;2024-02-14T11:10:14;5.27;;;2.30;;
12665;SDS011;58531;59.050;17.416;2024-02-14T11:12:42;3.00;;;2.30;;
12665;SDS011;58531;59.050;17.416;2024-02-14T11:15:15;7.47;;;2.57;;
12665;SDS011;58531;59.050;17.416;2024-02-14T11:17:43;5.23;;;1.80;;
12665;SDS011;58531;59.050;17.416;2024-02-14T11:20:14;6.40;;;2.10;;
12665;SDS011;58531;59.050;17.416;2024-02-14T11:22:56;5.67;;;2.27;;
12665;SDS011;58531;59.050;17.416;2024-02-14T11:25:28;6.90;;;2.30;;
12665;SDS011;58531;59.050;17.416;2024-02-14T11:28:00;6.43;;;2.13;;
12665;SDS011;58531;59.050;17.416;2024-02-14T11:30:39;7.33;;;2.20;;
12665;SDS011;58531;59.050;17.416;2024-02-14T11:33:09;9.03;;;2.20;;
12665;SDS011;58531;59.050;17.416;2024-02-14T11:35:40;7.80;;;2.20;;
12665;SDS011;58531;59.050;17.416;2024-02-14T11:38:08;4.30;;;2.50;;
12665;SDS011;58531;59.050;17.416;2024-02-14T11:40:35;6.73;;;1.97;;
12665;SDS011;58531;59.050;17.416;2024-02-14T11:43:05;5.20;;;2.60;;
12665;SDS011;58531;59.050;17.416;2024-02-14T11:45:36;7.20;;;1.97;;
12665;SDS011;58531;59.050;17.416;2024-02-14T11:48:05;5.13;;;2.13;;
12665;SDS011;58531;59.050;17.416;2024-02-14T11:50:33;9.03;;;2.13;;
12665;SDS011;58531;59.050;17.416;2024-02-14T11:53:00;8.70;;;2.10;;
12665;SDS011;58531;59.050;17.416;2024-02-14T11:55:29;3.57;;;2.07;;
12665;SDS011;58531;59.050;17.416;2024-02-14T11:57:57;6.67;;;2.13;;
12665;SDS011;58531;59.050;17.416;2024-02-14T12:00:26;6.03;;;2.20;;
12665;SDS011;58531;59.050;17.416;2024-02-14T12:02:53;5.63;;;2.20;;
12665;SDS011;58531;59.050;17.416;2024-02-14T12:05:20;6.80;;;1.67;;
12665;SDS011;58531;59.050;17.416;2024-02-14T12:07:47;6.80;;;2.50;;
12665;SDS011;58531;59.050;17.416;2024-02-14T12:10:14;8.93;;;2.00;;
12665;SDS011;58531;59.050;17.416;2024-02-14T12:12:44;3.50;;;1.87;;
12665;SDS011;58531;59.050;17.416;2024-02-14T12:15:11;5.03;;;1.63;;
12665;SDS011;58531;59.050;17.416;2024-02-14T12:17:41;6.77;;;1.90;;
12665;SDS011;58531;59.050;17.416;2024-02-14T12:20:09;4.63;;;1.70;;
12665;SDS011;58531;59.050;17.416;2024-02-14T12:22:38;4.40;;;2.00;;
12665;SDS011;58531;59.050;17.416;2024-02-14T12:25:05;6.87;;;1.80;;
12665;SDS011;58531;59.050;17.416;2024-02-14T12:27:33;6.87;;;1.70;;
12665;SDS011;58531;59.050;17.416;2024-02-14T12:30:03;6.40;;;1.27;;
12665;SDS011;58531;59.050;17.416;2024-02-14T12:32:30;6.57;;;1.50;;
12665;SDS011;58531;59.050;17.416;2024-02-14T12:34:58;5.37;;;1.60;;
12665;SDS011;58531;59.050;17.416;2024-02-14T12:37:25;5.90;;;1.93;;
12665;SDS011;58531;59.050;17.416;2024-02-14T12:39:52;6.77;;;1.90;;
12665;SDS011;58531;59.050;17.416;2024-02-14T12:42:20;8.57;;;2.10;;
12665;SDS011;58531;59.050;17.416;2024-02-14T12:44:50;5.40;;;1.67;;
12665;SDS011;58531;59.050;17.416;2024-02-14T12:47:18;3.93;;;1.80;;
12665;SDS011;58531;59.050;17.416;2024-02-14T12:49:46;6.13;;;1.80;;
12665;SDS011;58531;59.050;17.416;2024-02-14T12:52:15;3.50;;;1.70;;
12665;SDS011;58531;59.050;17.416;2024-02-14T12:54:43;4.20;;;2.10;;
12665;SDS011;58531;59.050;17.416;2024-02-14T12:57:10;7.03;;;2.37;;
12665;SDS011;58531;59.050;17.416;2024-02-14T12:59:37;3.70;;;1.73;;
12665;SDS011;58531;59.050;17.416;2024-02-14T13:02:04;4.17;;;1.90;;
12665;SDS011;58531;59.050;17.416;2024-02-14T13:04:32;8.30;;;1.97;;
12665;SDS011;58531;59.050;17.416;2024-02-14T13:07:00;8.77;;;2.73;;
12665;SDS011;58531;59.050;17.416;2024-02-14T13:09:28;6.73;;;2.17;;
12665;SDS011;58531;59.050;17.416;2024-02-14T13:11:55;5.60;;;1.93;;
12665;SDS011;58531;59.050;17.416;2024-02-14T13:14:22;6.63;;;2.43;;
12665;SDS011;58531;59.050;17.416;2024-02-14T13:16:50;4.60;;;1.80;;
12665;SDS011;58531;59.050;17.416;2024-02-14T13:19:16;6.10;;;2.37;;
12665;SDS011;58531;59.050;17.416;2024-02-14T13:21:43;8.17;;;2.10;;
12665;SDS011;58531;59.050;17.416;2024-02-14T13:24:12;5.77;;;2.27;;
12665;SDS011;58531;59.050;17.416;2024-02-14T13:26:41;5.03;;;2.10;;
12665;SDS011;58531;59.050;17.416;2024-02-14T13:29:08;4.80;;;2.53;;
12665;SDS011;58531;59.050;17.416;2024-02-14T13:31:34;8.50;;;2.20;;
12665;SDS011;58531;59.050;17.416;2024-02-14T13:34:01;6.83;;;2.27;;
12665;SDS011;58531;59.050;17.416;2024-02-14T13:36:29;9.33;;;2.40;;
12665;SDS011;58531;59.050;17.416;2024-02-14T13:38:57;5.40;;;2.10;;
12665;SDS011;58531;59.050;17.416;2024-02-14T13:41:25;8.10;;;2.53;;
12665;SDS011;58531;59.050;17.416;2024-02-14T13:43:53;5.67;;;2.17;;
12665;SDS011;58531;59.050;17.416;2024-02-14T13:46:20;8.83;;;2.90;;
12665;SDS011;58531;59.050;17.416;2024-02-14T13:48:47;6.30;;;2.30;;
12665;SDS011;58531;59.050;17.416;2024-02-14T13:51:14;7.00;;;2.30;;
12665;SDS011;58531;59.050;17.416;2024-02-14T13:53:41;7.37;;;2.80;;
12665;SDS011;58531;59.050;17.416;2024-02-14T13:56:08;6.10;;;2.50;;
12665;SDS011;58531;59.050;17.416;2024-02-14T13:58:36;9.87;;;3.17;;
12665;SDS011;58531;59.050;17.416;2024-02-14T14:01:05;5.33;;;2.07;;
12665;SDS011;58531;59.050;17.416;2024-02-14T14:03:32;7.67;;;2.97;;
12665;SDS011;58531;59.050;17.416;2024-02-14T14:06:02;9.87;;;2.50;;
12665;SDS011;58531;59.050;17.416;2024-02-14T14:08:30;4.03;;;2.03;;
12665;SDS011;58531;59.050;17.416;2024-02-14T14:10:57;4.60;;;1.87;;
12665;SDS011;58531;59.050;17.416;2024-02-14T14:13:24;7.97;;;2.60;;
12665;SDS011;58531;59.050;17.416;2024-02-14T14:15:54;7.20;;;2.27;;
12665;SDS011;58531;59.050;17.416;2024-02-14T14:18:23;7.67;;;2.23;;
12665;SDS011;58531;59.050;17.416;2024-02-14T14:20:50;5.83;;;2.00;;
12665;SDS011;58531;59.050;17.416;2024-02-14T14:23:17;7.40;;;2.70;;
12665;SDS011;58531;59.050;17.416;2024-02-14T14:25:44;5.93;;;2.23;;
12665;SDS011;58531;59.050;17.416;2024-02-14T14:28:11;8.40;;;2.20;;